Time;durP1;ratioP1;P1;durP2;ratioP2;P2;SDS_P1;SDS_P2;PMS_P1;PMS_P2;Temp;Humidity;BMP_temperature;BMP_pressure;BME280_temperature;BME280_humidity;BME280_pressure;Samples;Min_cycle;Max_cycle;Signal;HPM_P1;HPM_P2
2020/12/01 00:00:55;;;;;;;;;;;22.50;39.00;;;;;;1592791;73;688;-69
2020/12/01 00:02:57;;;;;;;;;;;22.50;39.00;;;;;;1596522;73;757;-69
2020/12/01 00:04:59;;;;;;;;;;;22.50;39.20;;;;;;1594434;73;806;-69
2020/12/01 00:07:01;;;;;;;;;;;22.50;39.20;;;;;;1593750;73;1263;-69
2020/12/01 00:09:02;;;;;;;;;;;22.50;39.30;;;;;;1597247;73;766;-68
2020/12/01 00:11:08;;;;;;;;;;;22.50;39.40;;;;;;1599882;73;712;-68
2020/12/01 00:13:11;;;;;;;;;;;22.40;39.00;;;;;;1591344;73;700;-68
2020/12/01 00:15:14;;;;;;;;;;;22.40;39.00;;;;;;1597517;73;1941;-68
2020/12/01 00:17:15;;;;;;;;;;;22.40;39.20;;;;;;1597598;73;1137;-68
2020/12/01 00:19:17;;;;;;;;;;;22.40;39.20;;;;;;1597723;73;799;-65
2020/12/01 00:21:19;;;;;;;;;;;22.40;39.30;;;;;;1595983;73;818;-68
2020/12/01 00:23:21;;;;;;;;;;;22.40;39.30;;;;;;1595102;73;695;-69
2020/12/01 00:25:23;;;;;;;;;;;22.40;39.30;;;;;;1597793;73;735;-68
2020/12/01 00:27:25;;;;;;;;;;;22.40;39.30;;;;;;1593375;73;1123;-67
2020/12/01 00:29:27;;;;;;;;;;;22.40;39.40;;;;;;1591370;73;1081;-68
2020/12/01 00:31:29;;;;;;;;;;;22.40;39.30;;;;;;1596186;73;738;-69
2020/12/01 00:33:31;;;;;;;;;;;22.40;39.40;;;;;;1595886;73;670;-67
2020/12/01 00:35:32;;;;;;;;;;;22.40;39.40;;;;;;1593138;73;1942;-68
2020/12/01 00:37:36;;;;;;;;;;;22.40;39.50;;;;;;1596805;73;1083;-68
2020/12/01 00:39:38;;;;;;;;;;;22.40;39.40;;;;;;1598141;73;698;-69
2020/12/01 00:41:40;;;;;;;;;;;22.30;39.40;;;;;;1595940;73;1088;-69
2020/12/01 00:43:42;;;;;;;;;;;22.40;39.50;;;;;;1596241;73;722;-69
2020/12/01 00:45:44;;;;;;;;;;;22.40;39.60;;;;;;1576065;74;813;-69
2020/12/01 00:47:46;;;;;;;;;;;22.40;39.50;;;;;;1592812;73;1071;-69
2020/12/01 00:49:47;;;;;;;;;;;22.40;39.60;;;;;;1598503;73;770;-69
2020/12/01 00:51:49;;;;;;;;;;;22.40;39.60;;;;;;1593680;73;736;-68
2020/12/01 00:53:51;;;;;;;;;;;22.40;39.60;;;;;;1595714;73;798;-67
2020/12/01 00:55:53;;;;;;;;;;;22.40;39.70;;;;;;1599881;73;1945;-68
2020/12/01 00:57:55;;;;;;;;;;;22.40;39.70;;;;;;1598231;73;714;-69
2020/12/01 00:59:57;;;;;;;;;;;22.40;39.60;;;;;;1597463;73;688;-68
2020/12/01 01:01:59;;;;;;;;;;;22.40;39.70;;;;;;1597269;73;785;-68
2020/12/01 01:04:01;;;;;;;;;;;22.40;39.90;;;;;;1598423;73;680;-68
2020/12/01 01:06:02;;;;;;;;;;;22.40;39.80;;;;;;1595860;73;1204;-68
2020/12/01 01:08:04;;;;;;;;;;;22.40;39.90;;;;;;1595495;73;630;-69
2020/12/01 01:10:06;;;;;;;;;;;22.40;39.90;;;;;;1600549;73;714;-68
2020/12/01 01:12:08;;;;;;;;;;;22.40;39.90;;;;;;1597442;73;742;-67
2020/12/01 01:14:10;;;;;;;;;;;22.40;39.90;;;;;;1597456;73;696;-67
2020/12/01 01:16:12;;;;;;;;;;;22.40;39.80;;;;;;1596464;73;1945;-67
2020/12/01 01:18:14;;;;;;;;;;;22.40;39.80;;;;;;1600532;73;711;-68
2020/12/01 01:20:16;;;;;;;;;;;22.40;39.90;;;;;;1591829;73;712;-68
2020/12/01 01:22:17;;;;;;;;;;;22.40;39.90;;;;;;1579892;73;721;-69
2020/12/01 01:24:19;;;;;;;;;;;22.40;40.00;;;;;;1594731;73;770;-69
2020/12/01 01:26:21;;;;;;;;;;;22.40;40.10;;;;;;1596612;73;1190;-69
2020/12/01 01:28:23;;;;;;;;;;;22.40;40.20;;;;;;1597226;73;768;-69
2020/12/01 01:30:25;;;;;;;;;;;22.40;40.30;;;;;;1607954;73;812;-69
2020/12/01 01:32:27;;;;;;;;;;;22.40;40.20;;;;;;1605332;73;732;-70
2020/12/01 01:34:29;;;;;;;;;;;22.40;40.10;;;;;;1600044;73;796;-69
2020/12/01 01:36:34;;;;;;;;;;;22.40;40.20;;;;;;1598198;73;1933;-68
2020/12/01 01:38:36;;;;;;;;;;;22.40;40.20;;;;;;1599232;73;784;-68
2020/12/01 01:40:37;;;;;;;;;;;22.40;40.20;;;;;;1600903;73;696;-69
2020/12/01 01:42:39;;;;;;;;;;;22.50;40.20;;;;;;1592197;73;706;-69
2020/12/01 01:44:41;;;;;;;;;;;22.40;40.00;;;;;;1591729;73;676;-70
2020/12/01 01:46:44;;;;;;;;;;;22.50;40.00;;;;;;1597453;73;1147;-69
2020/12/01 01:48:46;;;;;;;;;;;22.50;40.10;;;;;;1591929;73;721;-69
2020/12/01 01:51:01;;;;;;;;;;;22.50;40.10;;;;;;1607184;73;696;-70
2020/12/01 01:53:03;;;;;;;;;;;22.50;40.10;;;;;;1596330;73;623;-69
2020/12/01 01:55:09;;;;;;;;;;;22.50;40.00;;;;;;1603312;73;1929;-69
2020/12/01 01:57:11;;;;;;;;;;;22.50;40.00;;;;;;1602351;73;1179;-69
2020/12/01 01:59:13;;;;;;;;;;;22.50;40.10;;;;;;1612176;73;716;-68
2020/12/01 02:01:16;;;;;;;;;;;22.40;40.00;;;;;;1601008;73;721;-69
2020/12/01 02:03:25;;;;;;;;;;;22.50;40.10;;;;;;1593863;73;787;-69
2020/12/01 02:05:27;;;;;;;;;;;22.50;40.10;;;;;;1598847;73;659;-69
2020/12/01 02:07:29;;;;;;;;;;;22.50;40.20;;;;;;1601989;73;1200;-69
2020/12/01 02:09:39;;;;;;;;;;;22.40;40.00;;;;;;1596941;73;783;-69
2020/12/01 02:11:41;;;;;;;;;;;22.50;40.10;;;;;;1593038;73;727;-70
2020/12/01 02:13:47;;;;;;;;;;;22.50;40.10;;;;;;1597100;73;788;-69
2020/12/01 02:15:49;;;;;;;;;;;22.50;40.10;;;;;;1573924;73;1932;-69
2020/12/01 02:17:51;;;;;;;;;;;22.50;40.00;;;;;;1596777;73;1132;-70
2020/12/01 02:19:54;;;;;;;;;;;22.50;40.00;;;;;;1596452;73;792;-70
2020/12/01 02:21:56;;;;;;;;;;;22.50;40.00;;;;;;1601703;73;771;-69
2020/12/01 02:23:58;;;;;;;;;;;22.50;40.00;;;;;;1588260;73;776;-69
2020/12/01 02:26:01;;;;;;;;;;;22.50;40.00;;;;;;1602456;73;1092;-69
2020/12/01 02:28:04;;;;;;;;;;;22.60;39.90;;;;;;1599650;73;1079;-70
2020/12/01 02:30:11;;;;;;;;;;;22.50;39.90;;;;;;1599303;73;708;-70
2020/12/01 02:32:10;;;;;;;;;;;22.50;39.90;;;;;;1595914;73;1676;-70
2020/12/01 02:34:13;;;;;;;;;;;22.60;39.90;;;;;;1593273;73;742;-70
2020/12/01 02:36:15;;;;;;;;;;;22.50;39.90;;;;;;1594162;73;1925;-70
2020/12/01 02:38:17;;;;;;;;;;;22.50;40.10;;;;;;1591371;73;766;-71
2020/12/01 02:40:19;;;;;;;;;;;22.50;39.90;;;;;;1596409;73;652;-70
2020/12/01 02:42:23;;;;;;;;;;;22.50;39.90;;;;;;1593669;73;783;-70
2020/12/01 02:44:25;;;;;;;;;;;22.50;39.90;;;;;;1595333;73;720;-71
2020/12/01 02:46:34;;;;;;;;;;;22.50;39.80;;;;;;1598849;73;1146;-71
2020/12/01 02:48:30;;;;;;;;;;;22.50;39.80;;;;;;1605717;73;1578;-71
2020/12/01 02:50:32;;;;;;;;;;;22.50;39.90;;;;;;1600113;73;770;-71
2020/12/01 02:52:34;;;;;;;;;;;22.50;39.80;;;;;;1601638;73;723;-70
2020/12/01 02:54:36;;;;;;;;;;;22.50;39.80;;;;;;1597957;73;794;-70
2020/12/01 02:56:38;;;;;;;;;;;22.50;39.80;;;;;;1599907;72;1929;-70
2020/12/01 02:58:39;;;;;;;;;;;22.50;40.00;;;;;;1603565;73;767;-70
2020/12/01 03:00:43;;;;;;;;;;;22.50;40.00;;;;;;1598292;73;718;-70
2020/12/01 03:02:45;;;;;;;;;;;22.50;40.00;;;;;;1585979;73;791;-70
2020/12/01 03:04:47;;;;;;;;;;;22.60;40.00;;;;;;1599259;73;1062;-69
2020/12/01 03:06:49;;;;;;;;;;;22.50;40.00;;;;;;1600882;73;1175;-69
2020/12/01 03:08:51;;;;;;;;;;;22.60;39.90;;;;;;1596028;73;717;-69
2020/12/01 03:10:52;;;;;;;;;;;22.50;39.90;;;;;;1599830;73;687;-70
2020/12/01 03:12:54;;;;;;;;;;;22.60;39.90;;;;;;1604887;73;693;-70
2020/12/01 03:14:56;;;;;;;;;;;22.50;39.80;;;;;;1594446;73;663;-68
2020/12/01 03:16:58;;;;;;;;;;;22.50;39.80;;;;;;1601166;73;1941;-69
2020/12/01 03:19:00;;;;;;;;;;;22.50;39.90;;;;;;1604653;73;735;-69
2020/12/01 03:21:02;;;;;;;;;;;22.50;39.80;;;;;;1599438;73;653;-69
2020/12/01 03:23:04;;;;;;;;;;;22.60;39.90;;;;;;1594326;73;721;-69
2020/12/01 03:25:05;;;;;;;;;;;22.60;40.00;;;;;;1605908;73;709;-69
2020/12/01 03:27:07;;;;;;;;;;;22.60;39.90;;;;;;1600011;73;1147;-69
2020/12/01 03:29:09;;;;;;;;;;;22.60;39.80;;;;;;1620764;73;761;-68
2020/12/01 03:31:12;;;;;;;;;;;22.60;39.90;;;;;;1611979;73;597;-69
2020/12/01 03:33:13;;;;;;;;;;;22.60;39.90;;;;;;1600886;73;806;-70
2020/12/01 03:35:15;;;;;;;;;;;22.60;39.80;;;;;;1593932;73;587;-70
2020/12/01 03:37:17;;;;;;;;;;;22.60;39.90;;;;;;1601460;73;1942;-70
2020/12/01 03:39:19;;;;;;;;;;;22.50;39.90;;;;;;1608677;73;729;-69
2020/12/01 03:41:21;;;;;;;;;;;22.50;39.80;;;;;;1595872;73;736;-69
2020/12/01 03:43:23;;;;;;;;;;;22.50;39.90;;;;;;1597170;73;775;-69
2020/12/01 03:45:25;;;;;;;;;;;22.60;39.90;;;;;;1600474;73;729;-69
2020/12/01 03:47:26;;;;;;;;;;;22.60;39.90;;;;;;1596010;73;1086;-69
2020/12/01 03:49:28;;;;;;;;;;;22.60;39.80;;;;;;1596474;73;720;-70
2020/12/01 03:51:30;;;;;;;;;;;22.60;39.80;;;;;;1602131;73;657;-70
2020/12/01 03:53:32;;;;;;;;;;;22.60;39.70;;;;;;1598798;73;665;-69
2020/12/01 03:55:34;;;;;;;;;;;22.60;39.70;;;;;;1602464;73;672;-69
2020/12/01 03:57:42;;;;;;;;;;;22.60;39.80;;;;;;1600836;73;1936;-68
2020/12/01 03:59:43;;;;;;;;;;;22.60;39.80;;;;;;1598739;73;764;-68
2020/12/01 04:01:45;;;;;;;;;;;22.50;39.80;;;;;;1598531;73;786;-68
2020/12/01 04:03:47;;;;;;;;;;;22.60;39.80;;;;;;1599406;73;778;-68
2020/12/01 04:05:49;;;;;;;;;;;22.60;39.80;;;;;;1603156;73;706;-69
2020/12/01 04:07:55;;;;;;;;;;;22.60;39.80;;;;;;1598040;73;1147;-68
2020/12/01 04:09:57;;;;;;;;;;;22.60;39.70;;;;;;1597144;73;729;-68
2020/12/01 04:11:59;;;;;;;;;;;22.60;39.70;;;;;;1597568;73;748;-69
2020/12/01 04:14:01;;;;;;;;;;;22.60;39.70;;;;;;1584173;73;780;-68
2020/12/01 04:16:02;;;;;;;;;;;22.60;39.70;;;;;;1594944;73;1935;-69
2020/12/01 04:18:04;;;;;;;;;;;22.60;39.70;;;;;;1603789;73;772;-68
2020/12/01 04:20:06;;;;;;;;;;;22.60;39.70;;;;;;1607868;73;721;-68
2020/12/01 04:22:08;;;;;;;;;;;22.60;39.60;;;;;;1593520;73;768;-68
2020/12/01 04:24:10;;;;;;;;;;;22.60;39.70;;;;;;1602503;73;797;-68
2020/12/01 04:26:12;;;;;;;;;;;22.70;39.70;;;;;;1599356;72;1125;-68
2020/12/01 04:28:14;;;;;;;;;;;22.60;39.60;;;;;;1601034;73;719;-68
2020/12/01 04:30:15;;;;;;;;;;;22.70;39.70;;;;;;1591788;73;727;-69
2020/12/01 04:32:17;;;;;;;;;;;22.60;39.60;;;;;;1606279;73;760;-68
2020/12/01 04:34:19;;;;;;;;;;;22.70;39.70;;;;;;1597744;73;653;-69
2020/12/01 04:36:21;;;;;;;;;;;22.70;39.70;;;;;;1597204;73;1949;-70
2020/12/01 04:38:23;;;;;;;;;;;22.60;39.60;;;;;;1591317;73;796;-69
2020/12/01 04:40:26;;;;;;;;;;;22.70;39.70;;;;;;1594619;73;727;-69
2020/12/01 04:42:28;;;;;;;;;;;22.70;39.70;;;;;;1595060;73;839;-69
2020/12/01 04:44:30;;;;;;;;;;;22.70;39.70;;;;;;1589479;73;713;-69
2020/12/01 04:46:33;;;;;;;;;;;22.60;39.50;;;;;;1598949;73;1232;-69
2020/12/01 04:48:42;;;;;;;;;;;22.60;39.50;;;;;;1594383;73;718;-69
2020/12/01 04:50:45;;;;;;;;;;;22.70;39.70;;;;;;1591479;73;800;-69
2020/12/01 04:53:05;;;;;;;;;;;22.70;39.60;;;;;;1599400;73;717;-69
2020/12/01 04:55:24;;;;;;;;;;;22.70;39.70;;;;;;1597889;73;698;-69
2020/12/01 04:57:46;;;;;;;;;;;22.70;39.70;;;;;;1592371;73;1939;-66
2020/12/01 04:59:52;;;;;;;;;;;22.60;39.70;;;;;;1593947;73;1276;-66
2020/12/01 05:02:01;;;;;;;;;;;22.60;39.70;;;;;;1598079;73;715;-66
2020/12/01 05:04:08;;;;;;;;;;;22.70;39.80;;;;;;1593149;73;696;-66
2020/12/01 05:07:02;;;;;;;;;;;22.70;39.70;;;;;;1594605;73;1591;-66
2020/12/01 05:08:30;;;;;;;;;;;22.60;39.70;;;;;;1574609;73;1239;-66
2020/12/01 05:10:31;;;;;;;;;;;22.70;39.70;;;;;;1597804;73;1370;-67
2020/12/01 05:12:35;;;;;;;;;;;22.70;39.70;;;;;;1596582;73;794;-67
2020/12/01 05:14:42;;;;;;;;;;;22.70;39.70;;;;;;1592136;73;772;-67
2020/12/01 05:16:43;;;;;;;;;;;22.60;39.60;;;;;;1595722;73;1939;-66
2020/12/01 05:18:45;;;;;;;;;;;22.70;39.70;;;;;;1597566;73;695;-65
2020/12/01 05:20:49;;;;;;;;;;;22.70;39.70;;;;;;1593703;73;794;-65
2020/12/01 05:22:52;;;;;;;;;;;22.70;39.70;;;;;;1596683;73;682;-65
2020/12/01 05:24:54;;;;;;;;;;;22.70;39.70;;;;;;1597671;73;1035;-67
2020/12/01 05:26:56;;;;;;;;;;;22.80;39.70;;;;;;1602719;73;1122;-65
2020/12/01 05:28:58;;;;;;;;;;;22.80;39.70;;;;;;1598912;73;766;-65
2020/12/01 05:31:01;;;;;;;;;;;22.70;39.70;;;;;;1601272;73;725;-65
2020/12/01 05:33:05;;;;;;;;;;;22.70;39.70;;;;;;1603623;73;796;-65
2020/12/01 05:35:08;;;;;;;;;;;22.70;39.60;;;;;;1586366;73;1037;-66
2020/12/01 05:37:10;;;;;;;;;;;22.70;39.70;;;;;;1598360;73;1980;-63
2020/12/01 05:39:14;;;;;;;;;;;22.80;39.60;;;;;;1581194;74;857;-66
2020/12/01 05:41:17;;;;;;;;;;;22.80;39.50;;;;;;1597495;73;676;-66
2020/12/01 05:43:21;;;;;;;;;;;22.70;39.50;;;;;;1597610;73;1701;-66
2020/12/01 05:45:30;;;;;;;;;;;22.80;39.50;;;;;;1599872;73;1870;-66
2020/12/01 05:47:39;;;;;;;;;;;22.70;39.50;;;;;;1598158;73;1150;-66
2020/12/01 05:49:53;;;;;;;;;;;22.80;39.60;;;;;;1598009;73;1496;-66
2020/12/01 05:51:56;;;;;;;;;;;22.80;39.60;;;;;;1592121;73;822;-66
2020/12/01 05:53:58;;;;;;;;;;;22.70;39.60;;;;;;1593860;73;795;-66
2020/12/01 05:56:02;;;;;;;;;;;22.70;39.60;;;;;;1597687;73;1132;-67
2020/12/01 05:58:05;;;;;;;;;;;22.70;39.60;;;;;;1593023;73;1938;-66
2020/12/01 06:00:09;;;;;;;;;;;22.70;39.50;;;;;;1607631;73;753;-66
2020/12/01 06:02:11;;;;;;;;;;;22.80;39.50;;;;;;1596729;73;1764;-66
2020/12/01 06:04:17;;;;;;;;;;;22.70;39.60;;;;;;1606547;73;688;-66
2020/12/01 06:06:19;;;;;;;;;;;22.80;39.50;;;;;;1586153;73;1140;-64
2020/12/01 06:08:39;;;;;;;;;;;22.80;39.50;;;;;;1596434;73;790;-65
2020/12/01 06:10:45;;;;;;;;;;;22.70;39.50;;;;;;1594240;73;729;-66
2020/12/01 06:12:49;;;;;;;;;;;22.70;39.50;;;;;;1610399;73;713;-65
2020/12/01 06:14:56;;;;;;;;;;;22.70;39.50;;;;;;1602086;73;660;-66
2020/12/01 06:17:07;;;;;;;;;;;22.80;39.50;;;;;;1591537;73;1925;-67
2020/12/01 06:19:23;;;;;;;;;;;22.70;39.50;;;;;;1567191;74;791;-67
2020/12/01 06:21:27;;;;;;;;;;;22.70;39.50;;;;;;1601666;73;731;-66
2020/12/01 06:23:33;;;;;;;;;;;22.60;39.40;;;;;;1576141;73;1576;-67
2020/12/01 06:25:49;;;;;;;;;;;22.60;39.50;;;;;;1594613;73;691;-67
2020/12/01 06:27:52;;;;;;;;;;;22.70;39.60;;;;;;1593358;73;1071;-66
2020/12/01 06:30:05;;;;;;;;;;;22.70;39.50;;;;;;1595648;73;695;-66
2020/12/01 06:32:25;;;;;;;;;;;22.70;39.50;;;;;;1596431;73;1843;-66
2020/12/01 06:34:45;;;;;;;;;;;22.60;39.70;;;;;;1598030;73;807;-67
2020/12/01 06:36:48;;;;;;;;;;;22.60;39.50;;;;;;1591462;73;1922;-67
2020/12/01 06:38:58;;;;;;;;;;;22.60;39.40;;;;;;1597160;73;1589;-66
2020/12/01 06:41:03;;;;;;;;;;;22.60;39.30;;;;;;1600970;73;659;-67
2020/12/01 06:43:07;;;;;;;;;;;22.60;39.40;;;;;;1605340;73;699;-63
2020/12/01 06:45:10;;;;;;;;;;;22.70;39.40;;;;;;1591639;73;1966;-66
2020/12/01 06:47:12;;;;;;;;;;;22.60;39.20;;;;;;1609646;73;1154;-67
2020/12/01 06:49:16;;;;;;;;;;;22.70;39.40;;;;;;1589315;73;674;-66
2020/12/01 06:51:17;;;;;;;;;;;22.60;39.30;;;;;;1594935;73;1674;-65
2020/12/01 06:53:26;;;;;;;;;;;22.70;39.40;;;;;;1595717;73;750;-63
2020/12/01 06:55:42;;;;;;;;;;;22.60;39.20;;;;;;1601292;73;680;-67
2020/12/01 06:57:44;;;;;;;;;;;22.60;39.20;;;;;;1600619;73;1934;-64
2020/12/01 06:59:45;;;;;;;;;;;22.60;39.10;;;;;;1588451;73;795;-64
2020/12/01 07:01:47;;;;;;;;;;;22.50;39.30;;;;;;1593260;73;664;-64
2020/12/01 07:04:02;;;;;;;;;;;22.50;39.30;;;;;;1598009;73;772;-66
2020/12/01 07:06:17;;;;;;;;;;;22.70;39.40;;;;;;1599103;73;1089;-67
2020/12/01 07:08:21;;;;;;;;;;;22.60;39.20;;;;;;1609787;73;735;-66
2020/12/01 07:10:27;;;;;;;;;;;22.70;39.10;;;;;;1611491;73;1586;-68
2020/12/01 07:12:48;;;;;;;;;;;22.70;39.00;;;;;;1601905;73;763;-71
2020/12/01 07:14:51;;;;;;;;;;;22.60;38.60;;;;;;1600674;73;686;-68
2020/12/01 07:16:53;;;;;;;;;;;22.70;38.90;;;;;;1617296;73;1925;-66
2020/12/01 07:18:59;;;;;;;;;;;22.50;38.80;;;;;;1605101;73;750;-70
2020/12/01 07:21:03;;;;;;;;;;;22.60;38.90;;;;;;1600052;73;796;-66
2020/12/01 07:23:15;;;;;;;;;;;22.60;38.80;;;;;;1596149;73;773;-67
2020/12/01 07:25:19;;;;;;;;;;;22.60;38.70;;;;;;1595834;73;714;-66
2020/12/01 07:27:28;;;;;;;;;;;22.60;38.60;;;;;;1581620;73;1560;-65
2020/12/01 07:29:44;;;;;;;;;;;22.60;38.50;;;;;;1611590;73;664;-66
2020/12/01 07:31:46;;;;;;;;;;;22.70;38.60;;;;;;1614900;73;812;-65
2020/12/01 07:33:49;;;;;;;;;;;22.60;38.50;;;;;;1596931;73;797;-72
2020/12/01 07:35:56;;;;;;;;;;;22.70;38.50;;;;;;1597366;73;1650;-68
2020/12/01 07:38:06;;;;;;;;;;;22.60;38.30;;;;;;1603563;73;1910;-67
2020/12/01 07:40:08;;;;;;;;;;;22.70;38.40;;;;;;1590690;73;717;-67
2020/12/01 07:42:10;;;;;;;;;;;22.60;38.20;;;;;;1594897;73;649;-67
2020/12/01 07:44:14;;;;;;;;;;;22.60;38.10;;;;;;1577621;74;1578;-67
2020/12/01 07:46:16;;;;;;;;;;;22.60;38.00;;;;;;1579951;73;1230;-67
2020/12/01 07:48:20;;;;;;;;;;;22.80;38.10;;;;;;1585016;73;747;-66
2020/12/01 07:50:22;;;;;;;;;;;22.70;38.00;;;;;;1584022;73;874;-67
2020/12/01 07:52:26;;;;;;;;;;;22.70;37.90;;;;;;1580597;73;729;-66
2020/12/01 07:54:27;;;;;;;;;;;22.70;37.90;;;;;;1583112;73;684;-68
2020/12/01 07:56:29;;;;;;;;;;;22.80;37.80;;;;;;1581934;73;1093;-67
2020/12/01 07:58:31;;;;;;;;;;;22.60;37.70;;;;;;1580976;73;1956;-66
2020/12/01 08:00:33;;;;;;;;;;;22.70;37.70;;;;;;1585201;73;722;-65
2020/12/01 08:02:35;;;;;;;;;;;22.70;37.70;;;;;;1576641;73;791;-66
2020/12/01 08:04:37;;;;;;;;;;;22.70;37.70;;;;;;1584457;73;785;-65
2020/12/01 08:06:39;;;;;;;;;;;22.70;37.60;;;;;;1583140;73;1180;-67
2020/12/01 08:08:41;;;;;;;;;;;22.70;37.60;;;;;;1597174;73;719;-66
2020/12/01 08:10:44;;;;;;;;;;;22.70;37.60;;;;;;1596502;73;776;-66
2020/12/01 08:12:46;;;;;;;;;;;22.70;37.50;;;;;;1587180;73;766;-65
2020/12/01 08:14:51;;;;;;;;;;;22.70;37.40;;;;;;1591431;73;764;-67
2020/12/01 08:16:57;;;;;;;;;;;22.60;37.30;;;;;;1595434;73;1167;-67
2020/12/01 08:19:01;;;;;;;;;;;22.70;37.40;;;;;;1585201;73;1946;-67
2020/12/01 08:21:03;;;;;;;;;;;22.70;37.40;;;;;;1581592;73;723;-67
2020/12/01 08:23:15;;;;;;;;;;;22.70;37.40;;;;;;1585184;73;746;-67
2020/12/01 08:25:18;;;;;;;;;;;22.70;37.30;;;;;;1591736;73;1844;-67
2020/12/01 08:27:21;;;;;;;;;;;22.70;37.30;;;;;;1579852;73;1168;-67
2020/12/01 08:29:24;;;;;;;;;;;22.60;37.10;;;;;;1594137;73;807;-66
2020/12/01 08:31:30;;;;;;;;;;;22.70;37.20;;;;;;1599080;73;733;-67
2020/12/01 08:33:49;;;;;;;;;;;22.60;37.00;;;;;;1590181;73;741;-68
2020/12/01 08:36:02;;;;;;;;;;;22.70;37.10;;;;;;1593449;73;779;-68
2020/12/01 08:38:09;;;;;;;;;;;22.60;37.00;;;;;;1587235;73;1911;-68
2020/12/01 08:40:15;;;;;;;;;;;22.60;36.90;;;;;;1573845;74;1041;-68
2020/12/01 08:42:27;;;;;;;;;;;22.60;36.90;;;;;;1588904;73;706;-68
2020/12/01 08:44:40;;;;;;;;;;;22.60;36.90;;;;;;1593884;73;1554;-68
2020/12/01 08:46:42;;;;;;;;;;;22.70;36.90;;;;;;1592484;73;1130;-67
2020/12/01 08:48:51;;;;;;;;;;;22.60;36.70;;;;;;1597461;73;837;-67
2020/12/01 08:50:58;;;;;;;;;;;22.60;36.80;;;;;;1587894;73;775;-67
2020/12/01 08:53:08;;;;;;;;;;;22.60;36.80;;;;;;1594270;73;768;-67
2020/12/01 08:55:20;;;;;;;;;;;22.60;36.70;;;;;;1589918;73;769;-67
2020/12/01 08:57:24;;;;;;;;;;;22.60;36.70;;;;;;1586165;73;1145;-68
2020/12/01 08:59:42;;;;;;;;;;;22.60;36.60;;;;;;1591968;73;1429;-65
2020/12/01 09:01:44;;;;;;;;;;;22.60;36.60;;;;;;1588708;73;1669;-66
2020/12/01 09:03:53;;;;;;;;;;;22.60;36.50;;;;;;1598482;73;718;-66
2020/12/01 09:05:55;;;;;;;;;;;22.60;36.60;;;;;;1595882;73;1189;-68
2020/12/01 09:08:36;;;;;;;;;;;22.60;36.50;;;;;;1604905;73;746;-67
2020/12/01 09:10:33;;;;;;;;;;;22.70;36.60;;;;;;1590123;73;1523;-67
2020/12/01 09:12:41;;;;;;;;;;;22.60;36.60;;;;;;1595362;73;1603;-66
2020/12/01 09:17:07;;;;;;;;;;;22.60;36.60;;;;;;1590617;73;1184;-67
2020/12/01 09:23:48;;;;;;;;;;;22.60;36.40;;;;;;1596418;73;1682;-64
2020/12/01 09:25:51;;;;;;;;;;;22.50;36.40;;;;;;1592360;73;1785;-66
2020/12/01 09:27:53;;;;;;;;;;;22.60;36.40;;;;;;1605722;73;1123;-66
2020/12/01 09:29:55;;;;;;;;;;;22.50;36.30;;;;;;1604591;73;743;-67
2020/12/01 09:31:57;;;;;;;;;;;22.50;36.20;;;;;;1597942;73;714;-66
2020/12/01 09:33:59;;;;;;;;;;;22.60;36.20;;;;;;1608422;73;703;-67
2020/12/01 09:36:01;;;;;;;;;;;22.60;36.10;;;;;;1596347;73;1111;-66
2020/12/01 09:38:03;;;;;;;;;;;22.60;36.00;;;;;;1586906;73;1938;-67
2020/12/01 09:40:04;;;;;;;;;;;22.60;36.00;;;;;;1594592;73;783;-67
2020/12/01 09:42:13;;;;;;;;;;;22.60;35.90;;;;;;1592985;73;794;-67
2020/12/01 09:46:46;;;;;;;;;;;22.60;35.80;;;;;;1587716;73;1669;-67
2020/12/01 09:48:43;;;;;;;;;;;22.50;35.80;;;;;;1591290;73;988;-67
2020/12/01 09:50:45;;;;;;;;;;;22.60;35.90;;;;;;1589530;74;1435;-68
2020/12/01 09:55:43;;;;;;;;;;;22.50;35.80;;;;;;1597076;73;878;-67
2020/12/01 09:57:17;;;;;;;;;;;22.50;35.90;;;;;;1581093;73;1453;-66
2020/12/01 09:59:35;;;;;;;;;;;22.60;35.90;;;;;;1595259;73;1925;-69
2020/12/01 10:13:04;;;;;;;;;;;22.50;35.90;;;;;;1553365;74;1061;-67
2020/12/01 10:37:12;;;;;;;;;;;22.50;35.70;;;;;;1594611;73;1202;-70
2020/12/01 10:39:14;;;;;;;;;;;22.50;35.70;;;;;;1600905;73;1918;-67
2020/12/01 10:41:16;;;;;;;;;;;22.50;35.70;;;;;;1592577;73;731;-68
2020/12/01 10:43:17;;;;;;;;;;;22.50;35.70;;;;;;1579849;73;706;-67
2020/12/01 10:45:20;;;;;;;;;;;22.50;35.60;;;;;;1579379;73;775;-67
2020/12/01 10:47:22;;;;;;;;;;;22.50;35.60;;;;;;1594319;73;1161;-67
2020/12/01 10:49:24;;;;;;;;;;;22.60;35.60;;;;;;1596702;73;851;-68
2020/12/01 10:51:26;;;;;;;;;;;22.50;35.50;;;;;;1596048;74;809;-69
2020/12/01 10:53:28;;;;;;;;;;;22.50;35.50;;;;;;1587302;73;797;-67
2020/12/01 10:55:30;;;;;;;;;;;22.50;35.40;;;;;;1597838;73;757;-67
2020/12/01 10:57:32;;;;;;;;;;;22.50;35.40;;;;;;1591150;73;1187;-68
2020/12/01 10:59:37;;;;;;;;;;;22.60;35.40;;;;;;1589798;73;1906;-67
2020/12/01 11:01:39;;;;;;;;;;;22.50;35.30;;;;;;1591077;73;1791;-68
2020/12/01 11:03:41;;;;;;;;;;;22.50;35.20;;;;;;1594591;73;703;-67
2020/12/01 11:05:43;;;;;;;;;;;22.50;35.10;;;;;;1591723;73;793;-66
2020/12/01 11:07:45;;;;;;;;;;;22.50;35.30;;;;;;1591288;74;1072;-68
2020/12/01 11:09:47;;;;;;;;;;;22.50;35.50;;;;;;1596423;73;714;-67
2020/12/01 11:11:48;;;;;;;;;;;22.50;35.40;;;;;;1596319;73;764;-66
2020/12/01 11:13:50;;;;;;;;;;;22.50;35.40;;;;;;1593758;73;817;-69
2020/12/01 11:15:52;;;;;;;;;;;22.50;35.40;;;;;;1596697;73;705;-66
2020/12/01 11:17:54;;;;;;;;;;;22.50;35.30;;;;;;1597276;73;1149;-67
2020/12/01 11:19:56;;;;;;;;;;;22.60;35.30;;;;;;1598068;73;1937;-68
2020/12/01 11:21:58;;;;;;;;;;;22.70;35.40;;;;;;1597904;73;697;-67
2020/12/01 11:24:00;;;;;;;;;;;22.60;35.20;;;;;;1594778;73;735;-67
2020/12/01 11:26:01;;;;;;;;;;;22.60;35.20;;;;;;1595275;73;1142;-66
2020/12/01 11:28:03;;;;;;;;;;;22.60;35.20;;;;;;1596616;73;769;-68
2020/12/01 11:30:05;;;;;;;;;;;22.60;35.20;;;;;;1594975;73;802;-67
2020/12/01 11:32:07;;;;;;;;;;;22.60;35.20;;;;;;1597170;73;947;-67
2020/12/01 11:34:09;;;;;;;;;;;22.70;35.20;;;;;;1595479;73;700;-67
2020/12/01 11:36:11;;;;;;;;;;;22.60;35.10;;;;;;1594542;73;1115;-68
2020/12/01 11:38:13;;;;;;;;;;;22.60;35.20;;;;;;1597668;73;682;-67
2020/12/01 11:40:15;;;;;;;;;;;22.60;35.10;;;;;;1597365;73;678;-68
2020/12/01 11:42:17;;;;;;;;;;;22.60;35.00;;;;;;1595405;73;701;-68
2020/12/01 11:44:19;;;;;;;;;;;22.60;35.00;;;;;;1596171;73;784;-68
2020/12/01 11:46:21;;;;;;;;;;;22.60;35.00;;;;;;1597649;73;1191;-66
2020/12/01 11:48:23;;;;;;;;;;;22.70;35.10;;;;;;1600407;73;712;-66
2020/12/01 11:50:25;;;;;;;;;;;22.60;35.00;;;;;;1598282;73;1085;-67
2020/12/01 11:52:26;;;;;;;;;;;22.70;35.00;;;;;;1599559;73;684;-66
2020/12/01 11:54:28;;;;;;;;;;;22.60;35.00;;;;;;1578626;73;713;-66
2020/12/01 11:56:30;;;;;;;;;;;22.60;34.80;;;;;;1581888;73;1124;-66
2020/12/01 11:58:32;;;;;;;;;;;22.70;34.90;;;;;;1590040;73;1936;-65
2020/12/01 12:00:34;;;;;;;;;;;22.60;34.70;;;;;;1576668;73;664;-64
2020/12/01 12:02:37;;;;;;;;;;;22.60;34.80;;;;;;1578063;73;728;-66
2020/12/01 12:04:38;;;;;;;;;;;22.60;34.80;;;;;;1575289;73;711;-66
2020/12/01 12:06:40;;;;;;;;;;;22.70;34.80;;;;;;1582852;73;1144;-66
2020/12/01 12:08:42;;;;;;;;;;;22.60;34.80;;;;;;1582519;73;715;-66
2020/12/01 12:10:44;;;;;;;;;;;22.60;34.80;;;;;;1576952;73;696;-66
2020/12/01 12:12:48;;;;;;;;;;;22.60;34.70;;;;;;1597024;74;793;-67
2020/12/01 12:14:50;;;;;;;;;;;22.60;34.70;;;;;;1597401;73;764;-68
2020/12/01 12:16:52;;;;;;;;;;;22.60;34.70;;;;;;1598195;73;1230;-66
2020/12/01 12:18:54;;;;;;;;;;;22.70;34.80;;;;;;1591803;73;1932;-66
2020/12/01 12:20:56;;;;;;;;;;;22.60;34.70;;;;;;1588355;74;687;-66
2020/12/01 12:22:57;;;;;;;;;;;22.70;34.80;;;;;;1586668;74;728;-66
2020/12/01 12:24:59;;;;;;;;;;;22.60;34.70;;;;;;1597666;73;729;-66
2020/12/01 12:27:01;;;;;;;;;;;22.70;34.80;;;;;;1597596;73;1152;-66
2020/12/01 12:29:03;;;;;;;;;;;22.70;34.80;;;;;;1594549;73;751;-68
2020/12/01 12:31:05;;;;;;;;;;;22.60;34.70;;;;;;1595983;73;974;-65
2020/12/01 12:33:07;;;;;;;;;;;22.60;34.60;;;;;;1592231;73;786;-65
2020/12/01 12:35:09;;;;;;;;;;;22.60;34.70;;;;;;1595841;73;782;-66
2020/12/01 12:37:11;;;;;;;;;;;22.70;34.70;;;;;;1596865;73;1124;-66
2020/12/01 12:39:13;;;;;;;;;;;22.60;34.60;;;;;;1587349;73;1934;-65
2020/12/01 12:41:15;;;;;;;;;;;22.70;34.70;;;;;;1588669;73;669;-66
2020/12/01 12:43:17;;;;;;;;;;;22.60;34.60;;;;;;1592710;73;776;-66
2020/12/01 12:45:19;;;;;;;;;;;22.60;34.60;;;;;;1591730;73;792;-66
2020/12/01 12:47:20;;;;;;;;;;;22.60;34.60;;;;;;1596620;73;1202;-68
2020/12/01 12:49:22;;;;;;;;;;;22.60;34.60;;;;;;1586882;73;718;-65
2020/12/01 12:51:24;;;;;;;;;;;22.60;34.60;;;;;;1596861;73;696;-66
2020/12/01 12:53:26;;;;;;;;;;;22.60;34.60;;;;;;1594167;73;821;-66
2020/12/01 12:55:28;;;;;;;;;;;22.70;34.70;;;;;;1599208;73;706;-66
2020/12/01 12:57:30;;;;;;;;;;;22.60;34.60;;;;;;1599439;73;1191;-66
2020/12/01 12:59:32;;;;;;;;;;;22.60;34.60;;;;;;1596310;73;1937;-64
2020/12/01 13:01:34;;;;;;;;;;;22.70;34.70;;;;;;1598270;73;694;-65
2020/12/01 13:03:36;;;;;;;;;;;22.60;34.70;;;;;;1610884;73;728;-65